MCO weather

Orlando International Airport
Orlando, Florida, United States

Public forecast

Using degrees Fahrenheit for public forecast. Weather courtesy of forecast.io.

Current aviation weather report (METAR) for Orlando International Airport

Retrieved 2020/01/29 06:53 UTC (1 hour ago):

KMCO 290653Z 36008KT 10SM CLR 09/06 A3000 RMK AO2 SLP158 T00940061

Aviation forecast (TAF) for Orlando International Airport

Retrieved 2020/01/29 06:24 UTC (2 hours ago):

TAF KMCO 290522Z 2906/3012 01005KT P6SM FEW045 FEW250 FM291500 07006KT P6SM SCT035 SCT250 FM291800 10007KT P6SM SCT045 SCT150 BKN250 FM300000 VRB05KT P6SM SCT030 SCT080 BKN150 FM300600 31004KT P6SM VCSH SCT015 BKN030